PWSweather.com
Personal Weather Stations
Station Observations
WATERF01
WaterfordIE

WaterfordIE

Lat: 52.2412507, Lon: -7.1414691

Elevation: 65

Station Type: Davis Vantage Vue

www.waterfordweather.com

High Low Average
Temperature 46.8°F8.2°F 37.0°F2.8°F 42.7°F5.9°F
Dew Point 44.7°F7.1°F 35.4°F1.9°F 40.2°F4.6°F
Winds 16.1 mph WNW25.9 mph WNW Calm Calm 6.9 mph 11.1 mph
Wind Gusts 26.5 mph42.6 mph -- 12.2 mph19.6 mph
Humidity 97% 78% 91%
Pressure 29.64 in1003.70 in 29.32 in992.90 in -
Precipitation 0.35 in8.90 in - -
Hour Temp Dew Point Humidity Winds Wind Gusts Pressure Precip Precip Rate Daily Precip Total
12:00 AM 45.5°F7.5°C 42.7°F5.9°C 90% Calm Calm -- 29.64 in1003.7 mb - 0.00 in0.0 mm 0.00 in0.0 mm
12:10 AM 45.2°F7.3°C 42.7°F5.9°C 91% 2.3 mph SW3.7 kmh SW 4.6 mph7.4 kmh 29.63 in1003.4 mb - 0.00 in0.0 mm 0.00 in0.0 mm
12:20 AM 45.0°F7.2°C 42.5°F5.8°C 91% 1.2 mph NW1.9 kmh NW 1.2 mph1.9 kmh 29.63 in1003.4 mb - 0.00 in0.0 mm 0.00 in0.0 mm
12:30 AM 45.3°F7.4°C 42.8°F6.0°C 91% 1.2 mph WNW1.9 kmh WNW 4.6 mph7.4 kmh 29.62 in1003.0 mb - 0.00 in0.0 mm 0.00 in0.0 mm
12:40 AM 46.0°F7.8°C 42.9°F6.1°C 89% 3.5 mph WNW5.6 kmh WNW 6.9 mph11.1 kmh 29.63 in1003.4 mb - 0.00 in0.0 mm 0.00 in0.0 mm
12:50 AM 46.7°F8.2°C 43.3°F6.3°C 88% 5.8 mph WSW9.3 kmh WSW 9.2 mph14.8 kmh 29.62 in1003.0 mb - 0.00 in0.0 mm 0.00 in0.0 mm
01:00 AM 46.1°F7.8°C 43.1°F6.2°C 89% 1.2 mph WNW1.9 kmh WNW 4.6 mph7.4 kmh 29.62 in1003.0 mb - 0.00 in0.0 mm 0.00 in0.0 mm
01:10 AM 45.3°F7.4°C 42.8°F6.0°C 91% 6.9 mph W11.1 kmh W 9.2 mph14.8 kmh 29.62 in1003.0 mb - 0.00 in0.0 mm 0.00 in0.0 mm
01:20 AM 45.1°F7.3°C 42.9°F6.1°C 92% 6.9 mph WSW11.1 kmh WSW 15.0 mph24.1 kmh 29.62 in1003.0 mb - 0.00 in0.0 mm 0.00 in0.0 mm
01:30 AM 44.9°F7.2°C 42.7°F5.9°C 92% 6.9 mph W11.1 kmh W 11.5 mph18.5 kmh 29.62 in1003.0 mb - 0.00 in0.0 mm 0.00 in0.0 mm
01:40 AM 44.9°F7.2°C 42.7°F5.9°C 92% 6.9 mph W11.1 kmh W 12.7 mph20.4 kmh 29.62 in1003.0 mb - 0.00 in0.0 mm 0.00 in0.0 mm
01:50 AM 44.8°F7.1°C 42.6°F5.9°C 92% 6.9 mph WNW11.1 kmh WNW 11.5 mph18.5 kmh 29.61 in1002.7 mb - 0.00 in0.0 mm 0.00 in0.0 mm
02:00 AM 44.6°F7.0°C 42.7°F5.9°C 93% 3.5 mph NW5.6 kmh NW 6.9 mph11.1 kmh 29.62 in1003.0 mb - 0.00 in0.0 mm 0.00 in0.0 mm
02:10 AM 44.4°F6.9°C 42.5°F5.8°C 93% 4.6 mph SW7.4 kmh SW 11.5 mph18.5 kmh 29.62 in1003.0 mb - 0.00 in0.0 mm 0.00 in0.0 mm
02:20 AM 44.7°F7.1°C 42.8°F6.0°C 93% 5.8 mph WSW9.3 kmh WSW 9.2 mph14.8 kmh 29.61 in1002.7 mb - 0.00 in0.0 mm 0.00 in0.0 mm
02:30 AM 44.7°F7.1°C 42.8°F6.0°C 93% 4.6 mph SW7.4 kmh SW 8.1 mph13.0 kmh 29.61 in1002.7 mb - 0.00 in0.0 mm 0.00 in0.0 mm
02:40 AM 44.6°F7.0°C 42.7°F5.9°C 93% 4.6 mph WSW7.4 kmh WSW 6.9 mph11.1 kmh 29.61 in1002.7 mb - 0.00 in0.0 mm 0.00 in0.0 mm
02:50 AM 44.4°F6.9°C 42.5°F5.8°C 93% 6.9 mph WSW11.1 kmh WSW 11.5 mph18.5 kmh 29.60 in1002.4 mb - 0.00 in0.0 mm 0.00 in0.0 mm
03:00 AM 44.4°F6.9°C 42.5°F5.8°C 93% 6.9 mph WSW11.1 kmh WSW 11.5 mph18.5 kmh 29.60 in1002.4 mb - 0.00 in0.0 mm 0.00 in0.0 mm
03:10 AM 44.5°F6.9°C 42.6°F5.9°C 93% 5.8 mph WSW9.3 kmh WSW 9.2 mph14.8 kmh 29.60 in1002.4 mb - 0.00 in0.0 mm 0.00 in0.0 mm
03:20 AM 44.5°F6.9°C 42.6°F5.9°C 93% 4.6 mph W7.4 kmh W 9.2 mph14.8 kmh 29.59 in1002.0 mb - 0.00 in0.0 mm 0.00 in0.0 mm
03:30 AM 44.5°F6.9°C 42.6°F5.9°C 93% 3.5 mph WSW5.6 kmh WSW 8.1 mph13.0 kmh 29.59 in1002.0 mb - 0.00 in0.0 mm 0.00 in0.0 mm
03:40 AM 44.5°F6.9°C 42.6°F5.9°C 93% 4.6 mph WSW7.4 kmh WSW 8.1 mph13.0 kmh 29.59 in1002.0 mb - 0.00 in0.0 mm 0.00 in0.0 mm
03:50 AM 44.3°F6.8°C 42.4°F5.8°C 93% 5.8 mph W9.3 kmh W 11.5 mph18.5 kmh 29.58 in1001.7 mb - 0.00 in0.0 mm 0.00 in0.0 mm
04:00 AM 44.2°F6.8°C 42.3°F5.7°C 93% 5.8 mph WNW9.3 kmh WNW 9.2 mph14.8 kmh 29.57 in1001.4 mb - 0.00 in0.0 mm 0.00 in0.0 mm
04:10 AM 44.2°F6.8°C 42.6°F5.9°C 94% 5.8 mph WSW9.3 kmh WSW 6.9 mph11.1 kmh 29.57 in1001.4 mb - 0.00 in0.0 mm 0.00 in0.0 mm
04:20 AM 44.3°F6.8°C 42.7°F5.9°C 94% 4.6 mph WNW7.4 kmh WNW 8.1 mph13.0 kmh 29.57 in1001.4 mb - 0.00 in0.0 mm 0.00 in0.0 mm
04:30 AM 44.3°F6.8°C 42.7°F5.9°C 94% 3.5 mph NW5.6 kmh NW 6.9 mph11.1 kmh 29.56 in1001.0 mb - 0.00 in0.0 mm 0.00 in0.0 mm
04:40 AM 44.3°F6.8°C 42.7°F5.9°C 94% 2.3 mph SW3.7 kmh SW 5.8 mph9.3 kmh 29.56 in1001.0 mb - 0.00 in0.0 mm 0.00 in0.0 mm
04:50 AM 44.3°F6.8°C 42.7°F5.9°C 94% 1.2 mph SW1.9 kmh SW 5.8 mph9.3 kmh 29.55 in1000.7 mb - 0.00 in0.0 mm 0.00 in0.0 mm
05:00 AM 44.5°F6.9°C 42.9°F6.1°C 94% 6.9 mph W11.1 kmh W 9.2 mph14.8 kmh 29.55 in1000.7 mb - 0.00 in0.0 mm 0.00 in0.0 mm
05:10 AM 44.7°F7.1°C 43.1°F6.2°C 94% 5.8 mph WSW9.3 kmh WSW 9.2 mph14.8 kmh 29.55 in1000.7 mb - 0.00 in0.0 mm 0.00 in0.0 mm
05:20 AM 44.7°F7.1°C 43.1°F6.2°C 94% 2.3 mph SE3.7 kmh SE 2.3 mph3.7 kmh 29.54 in1000.3 mb - 0.00 in0.0 mm 0.00 in0.0 mm
05:30 AM 44.7°F7.1°C 43.1°F6.2°C 94% 4.6 mph W7.4 kmh W 8.1 mph13.0 kmh 29.54 in1000.3 mb - 0.00 in0.0 mm 0.00 in0.0 mm
05:40 AM 44.7°F7.1°C 43.0°F6.1°C 94% 2.3 mph SW3.7 kmh SW 5.8 mph9.3 kmh 29.53 in1000.0 mb - 0.00 in0.0 mm 0.00 in0.0 mm
05:50 AM 44.6°F7.0°C 43.0°F6.1°C 94% 3.5 mph SW5.6 kmh SW 8.1 mph13.0 kmh 29.52 in999.7 mb - 0.00 in0.0 mm 0.00 in0.0 mm
06:00 AM 44.5°F6.9°C 42.9°F6.1°C 94% 3.5 mph W5.6 kmh W 8.1 mph13.0 kmh 29.51 in999.3 mb - 0.00 in0.0 mm 0.00 in0.0 mm
06:10 AM 44.6°F7.0°C 43.0°F6.1°C 94% 5.8 mph WNW9.3 kmh WNW 13.8 mph22.2 kmh 29.50 in999.0 mb - 0.00 in0.0 mm 0.00 in0.0 mm
06:20 AM 44.7°F7.1°C 43.1°F6.2°C 94% 5.8 mph SW9.3 kmh SW 9.2 mph14.8 kmh 29.50 in999.0 mb - 0.00 in0.0 mm 0.00 in0.0 mm
06:30 AM 44.7°F7.1°C 43.1°F6.2°C 94% 4.6 mph SW7.4 kmh SW 8.1 mph13.0 kmh 29.50 in999.0 mb - 0.00 in0.0 mm 0.00 in0.0 mm
06:40 AM 44.8°F7.1°C 43.1°F6.2°C 94% 4.6 mph SSW7.4 kmh SSW 8.1 mph13.0 kmh 29.50 in999.0 mb - 0.00 in0.0 mm 0.00 in0.0 mm
06:50 AM 44.9°F7.2°C 43.3°F6.3°C 94% 3.5 mph WNW5.6 kmh WNW 6.9 mph11.1 kmh 29.49 in998.6 mb - 0.00 in0.0 mm 0.00 in0.0 mm
07:00 AM 45.0°F7.2°C 43.4°F6.3°C 94% 2.3 mph WSW3.7 kmh WSW 4.6 mph7.4 kmh 29.48 in998.3 mb - 0.00 in0.0 mm 0.00 in0.0 mm
07:10 AM 45.1°F7.3°C 43.5°F6.4°C 94% 1.2 mph WSW1.9 kmh WSW 2.3 mph3.7 kmh 29.47 in998.0 mb - 0.00 in0.0 mm 0.00 in0.0 mm
07:20 AM 45.2°F7.3°C 43.3°F6.3°C 93% 3.5 mph WSW5.6 kmh WSW 5.8 mph9.3 kmh 29.46 in997.6 mb - 0.00 in0.0 mm 0.00 in0.0 mm
07:30 AM 45.3°F7.4°C 43.7°F6.5°C 94% 3.5 mph SW5.6 kmh SW 8.1 mph13.0 kmh 29.46 in997.6 mb - 0.00 in0.0 mm 0.00 in0.0 mm
07:40 AM 45.4°F7.4°C 43.8°F6.6°C 94% 5.8 mph W9.3 kmh W 12.7 mph20.4 kmh 29.45 in997.3 mb - 0.00 in0.0 mm 0.00 in0.0 mm
07:50 AM 45.4°F7.4°C 43.7°F6.5°C 94% 4.6 mph W7.4 kmh W 8.1 mph13.0 kmh 29.44 in997.0 mb - 0.00 in0.0 mm 0.00 in0.0 mm
08:00 AM 45.5°F7.5°C 43.9°F6.6°C 94% 8.1 mph WSW13.0 kmh WSW 13.8 mph22.2 kmh 29.44 in997.0 mb - 0.00 in0.0 mm 0.00 in0.0 mm
08:10 AM 45.7°F7.6°C 44.1°F6.7°C 94% 6.9 mph W11.1 kmh W 13.8 mph22.2 kmh 29.43 in996.6 mb - 0.00 in0.0 mm 0.00 in0.0 mm
08:20 AM 45.7°F7.6°C 44.1°F6.7°C 94% 9.2 mph WSW14.8 kmh WSW 21.9 mph35.2 kmh 29.43 in996.6 mb - 0.00 in0.0 mm 0.00 in0.0 mm
08:30 AM 45.9°F7.7°C 44.3°F6.8°C 94% 8.1 mph W13.0 kmh W 13.8 mph22.2 kmh 29.43 in996.6 mb - 0.00 in0.0 mm 0.00 in0.0 mm
08:40 AM 46.3°F7.9°C 44.6°F7.0°C 94% 8.1 mph W13.0 kmh W 15.0 mph24.1 kmh 29.43 in996.6 mb - 0.00 in0.0 mm 0.00 in0.0 mm
08:50 AM 46.3°F7.9°C 44.7°F7.1°C 94% 6.9 mph W11.1 kmh W 11.5 mph18.5 kmh 29.42 in996.3 mb - 0.00 in0.0 mm 0.00 in0.0 mm
09:00 AM 46.3°F7.9°C 44.7°F7.1°C 94% 6.9 mph WNW11.1 kmh WNW 11.5 mph18.5 kmh 29.43 in996.6 mb - 0.01 in0.3 mm 0.01 in0.3 mm
09:10 AM 46.3°F7.9°C 44.7°F7.1°C 94% 5.8 mph WNW9.3 kmh WNW 10.4 mph16.7 kmh 29.42 in996.3 mb - 0.01 in0.3 mm 0.01 in0.3 mm
09:20 AM 46.2°F7.9°C 44.6°F7.0°C 94% 4.6 mph W7.4 kmh W 10.4 mph16.7 kmh 29.42 in996.3 mb - 0.01 in0.3 mm 0.02 in0.5 mm
09:30 AM 46.4°F8.0°C 44.5°F6.9°C 93% 4.6 mph W7.4 kmh W 9.2 mph14.8 kmh 29.41 in995.9 mb - 0.00 in0.0 mm 0.02 in0.5 mm
09:40 AM 46.5°F8.1°C 44.0°F6.7°C 91% 5.8 mph W9.3 kmh W 9.2 mph14.8 kmh 29.41 in995.9 mb - 0.00 in0.0 mm 0.02 in0.5 mm
09:50 AM 46.8°F8.2°C 44.0°F6.7°C 90% 6.9 mph WNW11.1 kmh WNW 15.0 mph24.1 kmh 29.42 in996.3 mb - 0.00 in0.0 mm 0.02 in0.5 mm
10:00 AM 45.7°F7.6°C 42.0°F5.6°C 87% 16.1 mph WNW25.9 kmh WNW 26.5 mph42.6 kmh 29.42 in996.3 mb - 0.00 in0.0 mm 0.02 in0.5 mm
10:10 AM 44.7°F7.1°C 41.9°F5.5°C 90% 6.9 mph WNW11.1 kmh WNW 11.5 mph18.5 kmh 29.42 in996.3 mb - 0.00 in0.0 mm 0.02 in0.5 mm
10:20 AM 44.5°F6.9°C 41.2°F5.1°C 88% 9.2 mph WNW14.8 kmh WNW 16.1 mph25.9 kmh 29.42 in996.3 mb - 0.00 in0.0 mm 0.02 in0.5 mm
10:30 AM 45.0°F7.2°C 41.9°F5.5°C 89% 5.8 mph W9.3 kmh W 12.7 mph20.4 kmh 29.42 in996.3 mb - 0.00 in0.0 mm 0.02 in0.5 mm
10:40 AM 45.0°F7.2°C 42.0°F5.6°C 89% 3.5 mph WNW5.6 kmh WNW 5.8 mph9.3 kmh 29.42 in996.3 mb - 0.00 in0.0 mm 0.02 in0.5 mm
10:50 AM 45.2°F7.3°C 41.9°F5.5°C 88% 6.9 mph WNW11.1 kmh WNW 11.5 mph18.5 kmh 29.43 in996.6 mb - 0.00 in0.0 mm 0.02 in0.5 mm
11:00 AM 45.3°F7.4°C 41.1°F5.1°C 85% 3.5 mph WNW5.6 kmh WNW 16.1 mph25.9 kmh 29.42 in996.3 mb - 0.00 in0.0 mm 0.02 in0.5 mm
11:10 AM 45.6°F7.6°C 40.7°F4.8°C 83% 8.1 mph WNW13.0 kmh WNW 12.7 mph20.4 kmh 29.42 in996.3 mb - 0.00 in0.0 mm 0.02 in0.5 mm
11:20 AM 46.1°F7.8°C 40.3°F4.6°C 80% 8.1 mph NW13.0 kmh NW 13.8 mph22.2 kmh 29.43 in996.6 mb - 0.00 in0.0 mm 0.02 in0.5 mm
11:30 AM 46.1°F7.8°C 39.9°F4.4°C 79% 12.7 mph WNW20.4 kmh WNW 20.7 mph33.3 kmh 29.43 in996.6 mb - 0.00 in0.0 mm 0.02 in0.5 mm
11:40 AM 45.9°F7.7°C 40.1°F4.5°C 80% 10.4 mph WNW16.7 kmh WNW 21.9 mph35.2 kmh 29.42 in996.3 mb - 0.00 in0.0 mm 0.02 in0.5 mm
11:50 AM 45.4°F7.4°C 39.6°F4.2°C 80% 6.9 mph WNW11.1 kmh WNW 11.5 mph18.5 kmh 29.42 in996.3 mb - 0.00 in0.0 mm 0.02 in0.5 mm
12:00 PM 45.4°F7.4°C 40.5°F4.7°C 83% 6.9 mph WNW11.1 kmh WNW 13.8 mph22.2 kmh 29.43 in996.6 mb - 0.00 in0.0 mm 0.02 in0.5 mm
12:10 PM 44.5°F6.9°C 40.6°F4.8°C 86% 8.1 mph W13.0 kmh W 13.8 mph22.2 kmh 29.42 in996.3 mb - 0.00 in0.0 mm 0.02 in0.5 mm
12:20 PM 44.6°F7.0°C 39.8°F4.3°C 83% 6.9 mph WNW11.1 kmh WNW 12.7 mph20.4 kmh 29.41 in995.9 mb - 0.00 in0.0 mm 0.02 in0.5 mm
12:30 PM 44.7°F7.1°C 39.5°F4.2°C 82% 8.1 mph WNW13.0 kmh WNW 13.8 mph22.2 kmh 29.41 in995.9 mb - 0.00 in0.0 mm 0.02 in0.5 mm
12:40 PM 44.6°F7.0°C 39.4°F4.1°C 82% 11.5 mph W18.5 kmh W 18.4 mph29.6 kmh 29.41 in995.9 mb - 0.00 in0.0 mm 0.02 in0.5 mm
12:50 PM 44.7°F7.1°C 40.2°F4.6°C 84% 6.9 mph WNW11.1 kmh WNW 12.7 mph20.4 kmh 29.41 in995.9 mb - 0.00 in0.0 mm 0.02 in0.5 mm
01:00 PM 45.3°F7.4°C 40.1°F4.5°C 82% 11.5 mph W18.5 kmh W 15.0 mph24.1 kmh 29.40 in995.6 mb - 0.00 in0.0 mm 0.02 in0.5 mm
01:10 PM 45.0°F7.2°C 40.1°F4.5°C 83% 6.9 mph W11.1 kmh W 10.4 mph16.7 kmh 29.39 in995.3 mb - 0.00 in0.0 mm 0.02 in0.5 mm
01:20 PM 44.9°F7.2°C 39.4°F4.1°C 81% 8.1 mph WNW13.0 kmh WNW 13.8 mph22.2 kmh 29.38 in994.9 mb - 0.00 in0.0 mm 0.02 in0.5 mm
01:30 PM 45.3°F7.4°C 39.2°F4.0°C 79% 8.1 mph WNW13.0 kmh WNW 11.5 mph18.5 kmh 29.37 in994.6 mb - 0.00 in0.0 mm 0.02 in0.5 mm
01:40 PM 45.5°F7.5°C 39.0°F3.9°C 78% 9.2 mph WNW14.8 kmh WNW 18.4 mph29.6 kmh 29.37 in994.6 mb - 0.00 in0.0 mm 0.02 in0.5 mm
01:50 PM 45.6°F7.6°C 39.5°F4.2°C 79% 10.4 mph W16.7 kmh W 16.1 mph25.9 kmh 29.36 in994.2 mb - 0.00 in0.0 mm 0.02 in0.5 mm
02:00 PM 45.7°F7.6°C 39.3°F4.1°C 78% 6.9 mph W11.1 kmh W 9.2 mph14.8 kmh 29.35 in993.9 mb - 0.00 in0.0 mm 0.02 in0.5 mm
02:10 PM 45.6°F7.6°C 39.5°F4.2°C 79% 3.5 mph W5.6 kmh W 8.1 mph13.0 kmh 29.35 in993.9 mb - 0.00 in0.0 mm 0.02 in0.5 mm
02:20 PM 45.3°F7.4°C 39.8°F4.3°C 81% 9.2 mph WNW14.8 kmh WNW 9.2 mph14.8 kmh 29.34 in993.6 mb - 0.00 in0.0 mm 0.02 in0.5 mm
02:30 PM 44.9°F7.2°C 40.1°F4.5°C 83% 4.6 mph WSW7.4 kmh WSW 9.2 mph14.8 kmh 29.34 in993.6 mb - 0.00 in0.0 mm 0.02 in0.5 mm
02:40 PM 44.7°F7.1°C 39.9°F4.4°C 83% 4.6 mph WSW7.4 kmh WSW 6.9 mph11.1 kmh 29.33 in993.2 mb - 0.00 in0.0 mm 0.02 in0.5 mm
02:50 PM 44.7°F7.1°C 39.9°F4.4°C 83% 6.9 mph W11.1 kmh W 12.7 mph20.4 kmh 29.32 in992.9 mb - 0.00 in0.0 mm 0.02 in0.5 mm
03:00 PM 44.6°F7.0°C 39.8°F4.3°C 83% 15.0 mph W24.1 kmh W 25.3 mph40.7 kmh 29.33 in993.2 mb - 0.00 in0.0 mm 0.02 in0.5 mm
03:10 PM 43.0°F6.1°C 39.4°F4.1°C 87% 12.7 mph W20.4 kmh W 21.9 mph35.2 kmh 29.33 in993.2 mb - 0.01 in0.3 mm 0.03 in0.8 mm
03:20 PM 40.7°F4.8°C 38.6°F3.7°C 92% 13.8 mph W22.2 kmh W 19.6 mph31.5 kmh 29.34 in993.6 mb - 0.02 in0.5 mm 0.05 in1.3 mm
03:30 PM 39.9°F4.4°C 38.3°F3.5°C 94% 11.5 mph WNW18.5 kmh WNW 13.8 mph22.2 kmh 29.32 in992.9 mb - 0.01 in0.3 mm 0.06 in1.5 mm
03:40 PM 39.8°F4.3°C 38.5°F3.6°C 95% 9.2 mph W14.8 kmh W 12.7 mph20.4 kmh 29.33 in993.2 mb - 0.00 in0.0 mm 0.06 in1.5 mm
03:50 PM 39.5°F4.2°C 38.4°F3.6°C 96% 12.7 mph W20.4 kmh W 18.4 mph29.6 kmh 29.33 in993.2 mb - 0.03 in0.8 mm 0.09 in2.3 mm
04:00 PM 38.8°F3.8°C 37.8°F3.2°C 96% 5.8 mph W9.3 kmh W 9.2 mph14.8 kmh 29.32 in992.9 mb - 0.01 in0.3 mm 0.10 in2.5 mm
04:10 PM 38.5°F3.6°C 37.5°F3.1°C 96% 8.1 mph WNW13.0 kmh WNW 12.7 mph20.4 kmh 29.33 in993.2 mb - 0.00 in0.0 mm 0.10 in2.5 mm
04:20 PM 38.4°F3.6°C 37.4°F3.0°C 96% 12.7 mph W20.4 kmh W 19.6 mph31.5 kmh 29.34 in993.6 mb - 0.01 in0.3 mm 0.11 in2.8 mm
04:30 PM 37.9°F3.3°C 36.9°F2.7°C 96% 11.5 mph NW18.5 kmh NW 16.1 mph25.9 kmh 29.33 in993.2 mb - 0.00 in0.0 mm 0.11 in2.8 mm
04:40 PM 37.4°F3.0°C 36.4°F2.4°C 96% 12.7 mph WNW20.4 kmh WNW 19.6 mph31.5 kmh 29.34 in993.6 mb - 0.00 in0.0 mm 0.11 in2.8 mm
04:50 PM 37.3°F2.9°C 36.3°F2.4°C 96% 10.4 mph WNW16.7 kmh WNW 13.8 mph22.2 kmh 29.34 in993.6 mb - 0.00 in0.0 mm 0.11 in2.8 mm
05:00 PM 37.7°F3.2°C 36.7°F2.6°C 96% 10.4 mph W16.7 kmh W 23.0 mph37.0 kmh 29.35 in993.9 mb - 0.00 in0.0 mm 0.11 in2.8 mm
05:10 PM 38.2°F3.4°C 36.6°F2.6°C 94% 8.1 mph WNW13.0 kmh WNW 15.0 mph24.1 kmh 29.35 in993.9 mb - 0.00 in0.0 mm 0.11 in2.8 mm
05:20 PM 38.0°F3.3°C 36.2°F2.3°C 93% 10.4 mph W16.7 kmh W 19.6 mph31.5 kmh 29.36 in994.2 mb - 0.01 in0.3 mm 0.12 in3.0 mm
05:30 PM 37.7°F3.2°C 36.1°F2.3°C 94% 10.4 mph WNW16.7 kmh WNW 19.6 mph31.5 kmh 29.36 in994.2 mb - 0.00 in0.0 mm 0.12 in3.0 mm
05:40 PM 37.4°F3.0°C 35.8°F2.1°C 94% 5.8 mph WNW9.3 kmh WNW 11.5 mph18.5 kmh 29.36 in994.2 mb - 0.00 in0.0 mm 0.12 in3.0 mm
05:50 PM 37.5°F3.1°C 35.7°F2.1°C 93% 9.2 mph NW14.8 kmh NW 18.4 mph29.6 kmh 29.36 in994.2 mb - 0.00 in0.0 mm 0.12 in3.0 mm
06:00 PM 38.3°F3.5°C 35.9°F2.2°C 91% 6.9 mph W11.1 kmh W 8.1 mph13.0 kmh 29.36 in994.2 mb - 0.00 in0.0 mm 0.12 in3.0 mm
06:10 PM 38.2°F3.4°C 35.8°F2.1°C 91% 4.6 mph WNW7.4 kmh WNW 8.1 mph13.0 kmh 29.37 in994.6 mb - 0.00 in0.0 mm 0.12 in3.0 mm
06:20 PM 38.6°F3.7°C 35.4°F1.9°C 88% 9.2 mph WNW14.8 kmh WNW 16.1 mph25.9 kmh 29.38 in994.9 mb - 0.00 in0.0 mm 0.12 in3.0 mm
06:30 PM 38.6°F3.7°C 35.6°F2.0°C 89% 9.2 mph WNW14.8 kmh WNW 19.6 mph31.5 kmh 29.38 in994.9 mb - 0.00 in0.0 mm 0.12 in3.0 mm
06:40 PM 38.9°F3.8°C 35.7°F2.1°C 88% 9.2 mph W14.8 kmh W 19.6 mph31.5 kmh 29.38 in994.9 mb - 0.00 in0.0 mm 0.12 in3.0 mm
06:50 PM 39.0°F3.9°C 35.7°F2.1°C 88% 8.1 mph WNW13.0 kmh WNW 12.7 mph20.4 kmh 29.39 in995.3 mb - 0.00 in0.0 mm 0.12 in3.0 mm
07:00 PM 39.0°F3.9°C 35.7°F2.1°C 88% 6.9 mph WNW11.1 kmh WNW 8.1 mph13.0 kmh 29.39 in995.3 mb - 0.00 in0.0 mm 0.12 in3.0 mm
07:10 PM 39.0°F3.9°C 35.7°F2.1°C 88% 9.2 mph W14.8 kmh W 13.8 mph22.2 kmh 29.39 in995.3 mb - 0.00 in0.0 mm 0.12 in3.0 mm
07:20 PM 39.6°F4.2°C 36.0°F2.2°C 87% 6.9 mph WNW11.1 kmh WNW 11.5 mph18.5 kmh 29.40 in995.6 mb - 0.00 in0.0 mm 0.12 in3.0 mm
07:30 PM 39.6°F4.2°C 36.6°F2.6°C 89% 12.7 mph WNW20.4 kmh WNW 25.3 mph40.7 kmh 29.41 in995.9 mb - 0.01 in0.3 mm 0.13 in3.3 mm
07:40 PM 38.7°F3.7°C 36.3°F2.4°C 91% 10.4 mph WNW16.7 kmh WNW 20.7 mph33.3 kmh 29.41 in995.9 mb - 0.03 in0.8 mm 0.16 in4.1 mm
07:50 PM 38.0°F3.3°C 36.5°F2.5°C 94% 5.8 mph WNW9.3 kmh WNW 9.2 mph14.8 kmh 29.41 in995.9 mb - 0.00 in0.0 mm 0.16 in4.1 mm
08:00 PM 38.0°F3.3°C 36.7°F2.6°C 95% 4.6 mph WNW7.4 kmh WNW 11.5 mph18.5 kmh 29.41 in995.9 mb - 0.00 in0.0 mm 0.16 in4.1 mm
08:10 PM 38.5°F3.6°C 37.2°F2.9°C 95% 9.2 mph WNW14.8 kmh WNW 13.8 mph22.2 kmh 29.42 in996.3 mb - 0.01 in0.3 mm 0.17 in4.3 mm
08:20 PM 38.7°F3.7°C 37.4°F3.0°C 95% 11.5 mph WNW18.5 kmh WNW 18.4 mph29.6 kmh 29.42 in996.3 mb - 0.02 in0.5 mm 0.19 in4.8 mm
08:30 PM 38.4°F3.6°C 37.1°F2.8°C 95% 6.9 mph WNW11.1 kmh WNW 19.6 mph31.5 kmh 29.42 in996.3 mb - 0.00 in0.0 mm 0.19 in4.8 mm
08:40 PM 38.7°F3.7°C 37.4°F3.0°C 95% 10.4 mph WNW16.7 kmh WNW 21.9 mph35.2 kmh 29.42 in996.3 mb - 0.00 in0.0 mm 0.19 in4.8 mm
08:50 PM 38.6°F3.7°C 37.0°F2.8°C 94% 9.2 mph WNW14.8 kmh WNW 16.1 mph25.9 kmh 29.44 in997.0 mb - 0.03 in0.8 mm 0.22 in5.6 mm
09:00 PM 37.7°F3.2°C 36.4°F2.4°C 95% 5.8 mph NW9.3 kmh NW 9.2 mph14.8 kmh 29.43 in996.6 mb - 0.03 in0.8 mm 0.24 in6.1 mm
09:10 PM 37.5°F3.1°C 36.2°F2.3°C 95% 8.1 mph W13.0 kmh W 16.1 mph25.9 kmh 29.44 in997.0 mb - 0.01 in0.3 mm 0.25 in6.4 mm
09:20 PM 37.5°F3.1°C 36.5°F2.5°C 96% 8.1 mph W13.0 kmh W 16.1 mph25.9 kmh 29.42 in996.3 mb - 0.01 in0.3 mm 0.26 in6.6 mm
09:30 PM 37.3°F2.9°C 36.3°F2.4°C 96% 5.8 mph WNW9.3 kmh WNW 8.1 mph13.0 kmh 29.41 in995.9 mb - 0.00 in0.0 mm 0.26 in6.6 mm
09:40 PM 37.2°F2.9°C 36.2°F2.3°C 96% 5.8 mph WNW9.3 kmh WNW 11.5 mph18.5 kmh 29.41 in995.9 mb - 0.00 in0.0 mm 0.26 in6.6 mm
09:50 PM 37.0°F2.8°C 36.0°F2.2°C 96% 4.6 mph W7.4 kmh W 9.2 mph14.8 kmh 29.41 in995.9 mb - 0.00 in0.0 mm 0.26 in6.6 mm
10:00 PM 37.3°F2.9°C 36.3°F2.4°C 96% 4.6 mph W7.4 kmh W 11.5 mph18.5 kmh 29.41 in995.9 mb - 0.01 in0.3 mm 0.27 in6.9 mm
10:10 PM 37.5°F3.1°C 36.5°F2.5°C 96% 6.9 mph W11.1 kmh W 9.2 mph14.8 kmh 29.41 in995.9 mb - 0.00 in0.0 mm 0.27 in6.9 mm
10:20 PM 38.2°F3.4°C 37.5°F3.1°C 97% 9.2 mph WNW14.8 kmh WNW 12.7 mph20.4 kmh 29.42 in996.3 mb - 0.01 in0.3 mm 0.28 in7.1 mm
10:30 PM 38.7°F3.7°C 37.9°F3.3°C 97% 6.9 mph W11.1 kmh W 9.2 mph14.8 kmh 29.41 in995.9 mb - 0.01 in0.3 mm 0.28 in7.1 mm
10:40 PM 38.7°F3.7°C 37.9°F3.3°C 97% 6.9 mph WNW11.1 kmh WNW 16.1 mph25.9 kmh 29.42 in996.3 mb - 0.01 in0.3 mm 0.29 in7.4 mm
10:50 PM 38.7°F3.7°C 37.9°F3.3°C 97% 8.1 mph W13.0 kmh W 15.0 mph24.1 kmh 29.41 in995.9 mb - 0.01 in0.3 mm 0.30 in7.6 mm
11:00 PM 38.9°F3.8°C 38.1°F3.4°C 97% 6.9 mph W11.1 kmh W 11.5 mph18.5 kmh 29.41 in995.9 mb - 0.00 in0.0 mm 0.30 in7.6 mm
11:10 PM 39.0°F3.9°C 38.0°F3.3°C 96% 8.1 mph W13.0 kmh W 12.7 mph20.4 kmh 29.40 in995.6 mb - 0.00 in0.0 mm 0.30 in7.6 mm
11:20 PM 39.1°F3.9°C 37.8°F3.2°C 95% 8.1 mph W13.0 kmh W 16.1 mph25.9 kmh 29.40 in995.6 mb - 0.00 in0.0 mm 0.30 in7.6 mm
11:30 PM 39.6°F4.2°C 37.7°F3.2°C 93% 8.1 mph WNW13.0 kmh WNW 11.5 mph18.5 kmh 29.42 in996.3 mb - 0.00 in0.0 mm 0.30 in7.6 mm
11:40 PM 39.9°F4.4°C 38.0°F3.3°C 93% 10.4 mph NW16.7 kmh NW 16.1 mph25.9 kmh 29.42 in996.3 mb - 0.02 in0.5 mm 0.32 in8.1 mm
11:50 PM 39.8°F4.3°C 37.9°F3.3°C 93% 6.9 mph WNW11.1 kmh WNW 13.8 mph22.2 kmh 29.41 in995.9 mb - 0.00 in0.0 mm 0.32 in8.1 mm